createdAt,value
2024-05-09T00:01:31.467Z,100865.53
2024-05-09T00:04:02.166Z,100877.81
2024-05-09T00:06:35.171Z,100865.84
2024-05-09T00:09:05.015Z,100875.59
2024-05-09T00:11:34.919Z,100868.75
2024-05-09T00:14:05.163Z,100874.06
2024-05-09T00:16:35.172Z,100872.47
2024-05-09T00:19:05.556Z,100869.06
2024-05-09T00:21:38.057Z,100869.28
2024-05-09T00:24:08.180Z,100875.69
2024-05-09T00:26:38.719Z,100869.81
2024-05-09T00:29:08.945Z,100879.69
2024-05-09T00:31:38.707Z,100879.09
2024-05-09T00:34:08.767Z,100878.53
2024-05-09T00:36:41.292Z,100876.28
2024-05-09T00:39:11.041Z,100875.75
2024-05-09T00:41:40.827Z,100871.63
2024-05-09T00:44:11.092Z,100869.19
2024-05-09T00:46:41.160Z,100871.06
2024-05-09T00:49:11.959Z,100876.41
2024-05-09T00:51:45.170Z,100868.69
2024-05-09T00:54:15.394Z,100871.38
2024-05-09T00:56:45.773Z,100874.06
2024-05-09T00:59:15.633Z,100873.22
2024-05-09T01:01:46.078Z,100869.81
2024-05-09T01:04:16.653Z,100873.38
2024-05-09T01:06:50.545Z,100873.53
2024-05-09T01:09:20.252Z,100870.22
2024-05-09T01:11:50.174Z,100867.69
2024-05-09T01:14:20.042Z,100867.69
2024-05-09T01:16:49.858Z,100865.16
2024-05-09T01:19:26.203Z,100873.91
2024-05-09T01:21:58.898Z,100862.63
2024-05-09T01:24:32.815Z,100871.41
2024-05-09T01:27:02.501Z,100868.06
2024-05-09T01:29:32.680Z,100875.13
2024-05-09T01:34:34.089Z,100871.97
2024-05-09T01:37:04.102Z,100871.22
2024-05-09T01:39:37.302Z,100881.78
2024-05-09T01:42:07.819Z,100881.91
2024-05-09T01:44:37.690Z,100888.09
2024-05-09T01:47:08.259Z,100896.00
2024-05-09T01:49:39.061Z,100883.13
2024-05-09T01:52:09.323Z,100878.84
2024-05-09T01:54:41.572Z,100884.13
2024-05-09T01:57:11.260Z,100891.13
2024-05-09T01:59:40.963Z,100885.94
2024-05-09T02:02:10.805Z,100886.00
2024-05-09T02:04:40.994Z,100884.31
2024-05-09T02:07:10.952Z,100880.00
2024-05-09T02:09:43.995Z,100886.94
2024-05-09T02:12:14.918Z,100888.72
2024-05-09T02:14:42.134Z,100889.66
2024-05-09T02:17:12.344Z,100885.38
2024-05-09T02:19:41.956Z,100886.25
2024-05-09T02:22:11.651Z,100881.97
2024-05-09T02:24:45.072Z,100882.03
2024-05-09T02:27:16.319Z,100878.63
2024-05-09T02:29:47.902Z,100880.41
2024-05-09T02:32:17.852Z,100881.38
2024-05-09T02:34:45.233Z,100889.19
2024-05-09T02:37:15.026Z,100877.97
2024-05-09T02:39:44.773Z,100885.75
2024-05-09T02:42:14.626Z,100887.53
2024-05-09T02:44:41.698Z,100891.84
2024-05-09T02:47:11.693Z,100887.59
2024-05-09T02:49:39.351Z,100893.66
2024-05-09T02:52:09.614Z,100895.44
2024-05-09T02:54:36.753Z,100898.09
2024-05-09T02:57:09.300Z,100898.13
2024-05-09T02:59:36.492Z,100896.44
2024-05-09T03:02:06.492Z,100898.19
2024-05-09T03:04:34.371Z,100906.84
2024-05-09T03:07:04.311Z,100902.53
2024-05-09T03:09:31.536Z,100899.94
2024-05-09T03:12:02.785Z,100909.50
2024-05-09T03:14:33.041Z,100899.16
2024-05-09T03:17:02.804Z,100906.97
2024-05-09T03:19:30.389Z,100902.66
2024-05-09T03:22:01.594Z,100904.41
2024-05-09T03:24:29.106Z,100901.81
2024-05-09T03:26:58.715Z,100910.44
2024-05-09T03:29:26.129Z,100900.91
2024-05-09T03:31:58.834Z,100903.50
2024-05-09T03:34:26.261Z,100900.91
2024-05-09T03:36:55.888Z,100903.50
2024-05-09T03:39:25.628Z,100901.75
2024-05-09T03:41:55.434Z,100894.84
2024-05-09T03:44:25.422Z,100908.66
2024-05-09T03:46:58.255Z,100906.06
2024-05-09T03:49:25.627Z,100902.59
2024-05-09T03:51:55.989Z,100909.50
2024-05-09T03:54:24.822Z,100911.16
2024-05-09T03:56:54.894Z,100911.16
2024-05-09T03:59:22.237Z,100905.97
2024-05-09T04:01:52.190Z,100905.06
2024-05-09T04:04:22.494Z,100907.59
2024-05-09T04:06:52.463Z,100904.06
2024-05-09T04:09:19.587Z,100910.91
2024-05-09T04:11:49.823Z,100907.38
2024-05-09T04:14:17.478Z,100909.00
2024-05-09T04:16:47.641Z,100910.66
2024-05-09T04:19:15.654Z,100911.47
2024-05-09T04:21:48.354Z,100914.09
2024-05-09T04:24:16.284Z,100904.56
2024-05-09T04:26:46.337Z,100907.16
2024-05-09T04:29:13.927Z,100911.44
2024-05-09T04:31:44.090Z,100911.38
2024-05-09T04:34:11.747Z,100910.47
2024-05-09T04:36:44.383Z,100921.59
2024-05-09T04:39:15.010Z,100919.72
2024-05-09T04:41:44.836Z,100921.28
2024-05-09T04:44:12.283Z,100924.56
2024-05-09T04:46:42.383Z,100935.66
2024-05-09T04:49:09.704Z,100932.84
2024-05-09T04:51:39.702Z,100917.81
2024-05-09T04:54:10.723Z,100926.97
2024-05-09T04:56:46.045Z,100923.19
2024-05-09T04:59:13.606Z,100914.19
2024-05-09T05:01:43.848Z,100919.09
2024-05-09T05:04:11.490Z,100917.00
2024-05-09T05:06:41.438Z,100918.44
2024-05-09T05:09:09.191Z,100923.38
2024-05-09T05:11:39.060Z,100925.81
2024-05-09T05:14:08.921Z,100927.41
2024-05-09T05:16:38.880Z,100925.44
2024-05-09T05:19:09.012Z,100931.31
2024-05-09T05:21:40.629Z,100924.88
2024-05-09T05:24:08.504Z,100934.13
2024-05-09T05:26:39.224Z,100929.47
2024-05-09T05:29:09.222Z,100934.31
2024-05-09T05:31:39.137Z,100930.44
2024-05-09T05:34:06.422Z,100933.53
2024-05-09T05:36:36.413Z,100934.09
2024-05-09T05:39:03.813Z,100936.28
2024-05-09T05:41:33.725Z,100930.53
2024-05-09T05:44:01.024Z,100935.34
2024-05-09T05:46:33.412Z,100934.84
2024-05-09T05:49:00.710Z,100940.50
2024-05-09T05:51:30.453Z,100940.00
2024-05-09T05:53:58.536Z,100937.75
2024-05-09T05:56:29.018Z,100932.69
2024-05-09T05:58:56.244Z,100927.59
2024-05-09T06:01:26.286Z,100932.22
2024-05-09T06:03:56.573Z,100929.84
2024-05-09T06:06:26.368Z,100931.81
2024-05-09T06:08:54.960Z,100932.94
2024-05-09T06:11:25.005Z,100936.13
2024-05-09T06:13:52.216Z,100931.72
2024-05-09T06:16:23.349Z,100928.28
2024-05-09T06:18:50.650Z,100927.47
2024-05-09T06:21:23.475Z,100923.25
2024-05-09T06:23:50.590Z,100920.94
2024-05-09T06:26:21.727Z,100926.56
2024-05-09T06:28:49.108Z,100923.50
2024-05-09T06:31:19.021Z,100920.31
2024-05-09T06:33:46.795Z,100922.25
2024-05-09T06:36:16.780Z,100924.66
2024-05-09T06:38:46.671Z,100921.34
2024-05-09T06:41:17.212Z,100928.47
2024-05-09T06:43:44.600Z,100925.47
2024-05-09T06:46:14.409Z,100928.22
2024-05-09T06:48:42.403Z,100925.66
2024-05-09T06:51:12.451Z,100931.72
2024-05-09T06:53:41.362Z,100930.88
2024-05-09T06:56:13.978Z,100927.19
2024-05-09T06:58:41.260Z,100930.41
2024-05-09T07:01:11.050Z,100924.69
2024-05-09T07:03:38.337Z,100921.47
2024-05-09T07:06:08.465Z,100922.75
2024-05-09T07:08:35.697Z,100924.75
2024-05-09T07:11:05.766Z,100917.59
2024-05-09T07:13:35.872Z,100920.41
2024-05-09T07:16:05.757Z,100923.53
2024-05-09T07:18:33.380Z,100913.34
2024-05-09T07:21:03.445Z,100917.19
2024-05-09T07:23:31.394Z,100919.06
2024-05-09T07:26:01.510Z,100919.03
2024-05-09T07:28:29.098Z,100926.09
2024-05-09T07:31:01.648Z,100915.47
2024-05-09T07:33:29.184Z,100921.84
2024-05-09T07:35:59.638Z,100910.22
2024-05-09T07:38:27.213Z,100921.47
2024-05-09T07:40:57.595Z,100917.22
2024-05-09T07:43:25.005Z,100908.31
2024-05-09T07:45:57.282Z,100919.06
2024-05-09T07:50:01.148Z,100913.25
2024-05-09T07:53:53.255Z,100919.41
2024-05-09T07:56:26.283Z,100912.38
2024-05-09T07:58:54.426Z,100910.84
2024-05-09T08:01:26.617Z,100916.16
2024-05-09T08:03:57.199Z,100905.13
2024-05-09T08:06:27.461Z,100908.25
2024-05-09T08:08:55.331Z,100903.06
2024-05-09T08:11:26.103Z,100897.38
2024-05-09T08:13:53.518Z,100907.97
2024-05-09T08:16:23.937Z,100904.97
2024-05-09T08:18:51.574Z,100900.28
2024-05-09T08:21:24.435Z,100903.78
2024-05-09T08:23:51.974Z,100910.59
2024-05-09T08:26:22.003Z,100902.09
2024-05-09T08:28:49.607Z,100902.00
2024-05-09T08:31:19.550Z,100900.63
2024-05-09T08:33:48.097Z,100896.25
2024-05-09T08:36:18.559Z,100896.97
2024-05-09T08:38:48.320Z,100891.81
2024-05-09T08:41:18.315Z,100891.41
2024-05-09T08:43:46.943Z,100888.56
2024-05-09T08:46:18.685Z,100896.91
2024-05-09T08:48:49.920Z,100887.06
2024-05-09T08:51:20.197Z,100890.19
2024-05-09T08:53:50.231Z,100895.50
2024-05-09T08:56:23.148Z,100894.03
2024-05-09T08:58:55.879Z,100889.28
2024-05-09T09:01:27.075Z,100896.44
2024-05-09T09:03:55.340Z,100898.09
2024-05-09T09:06:27.220Z,100896.06
2024-05-09T09:08:57.356Z,100908.41
2024-05-09T09:11:27.329Z,100897.50
2024-05-09T09:13:54.599Z,100884.25
2024-05-09T09:16:35.348Z,100884.63
2024-05-09T09:19:03.474Z,100883.97
2024-05-09T09:21:33.863Z,100884.19
2024-05-09T09:24:04.051Z,100881.16
2024-05-09T09:26:34.226Z,100886.94
2024-05-09T09:29:02.026Z,100887.97
2024-05-09T09:31:33.822Z,100884.91
2024-05-09T09:34:07.228Z,100879.47
2024-05-09T09:36:38.867Z,100882.09
2024-05-09T09:39:10.082Z,100880.13
2024-05-09T09:41:40.928Z,100882.63
2024-05-09T09:44:09.985Z,100879.25
2024-05-09T09:46:41.030Z,100873.84
2024-05-09T09:49:09.464Z,100877.31
2024-05-09T09:51:43.772Z,100871.72
2024-05-09T09:54:15.191Z,100881.41
2024-05-09T09:56:48.553Z,100876.81
2024-05-09T09:59:17.228Z,100875.31
2024-05-09T10:01:49.185Z,100873.63
2024-05-09T10:04:18.890Z,100868.03
2024-05-09T10:06:52.823Z,100871.09
2024-05-09T10:09:23.169Z,100872.03
2024-05-09T10:11:59.963Z,100868.53
2024-05-09T10:14:31.047Z,100874.59
2024-05-09T10:17:07.496Z,100879.38
2024-05-09T10:19:35.370Z,100877.28
2024-05-09T10:22:06.139Z,100868.47
2024-05-09T10:24:50.479Z,100862.94
2024-05-09T10:27:29.284Z,100865.00
2024-05-09T10:29:57.748Z,100868.94
2024-05-09T10:32:30.001Z,100863.53
2024-05-09T10:35:01.091Z,100868.31
2024-05-09T10:37:31.474Z,100858.72
2024-05-09T10:40:03.250Z,100854.31
2024-05-09T10:42:34.351Z,100852.75
2024-05-09T10:45:02.394Z,100853.69
2024-05-09T10:47:33.078Z,100856.56
2024-05-09T10:50:00.837Z,100846.97
2024-05-09T10:52:31.053Z,100853.34
2024-05-09T10:55:00.356Z,100849.81
2024-05-09T10:57:41.024Z,100853.88
2024-05-09T11:00:15.624Z,100849.94
2024-05-09T11:02:50.870Z,100838.03
2024-05-09T11:05:18.353Z,100833.19
2024-05-09T11:07:48.550Z,100840.91
2024-05-09T11:10:24.369Z,100833.25
2024-05-09T11:13:00.087Z,100840.31
2024-05-09T11:15:37.961Z,100837.47
2024-05-09T11:18:08.285Z,100832.13
2024-05-09T11:20:35.842Z,100821.78
2024-05-09T11:23:07.756Z,100830.91
2024-05-09T11:25:35.327Z,100825.28
2024-05-09T11:28:11.873Z,100818.25
2024-05-09T11:30:39.284Z,100820.25
2024-05-09T11:33:09.237Z,100818.28
2024-05-09T11:35:36.565Z,100812.22
2024-05-09T11:38:07.976Z,100809.81
2024-05-09T11:40:35.409Z,100808.34
2024-05-09T11:43:08.201Z,100811.28
2024-05-09T11:45:35.467Z,100808.06
2024-05-09T11:48:06.933Z,100809.34
2024-05-09T11:50:35.967Z,100814.41
2024-05-09T11:53:06.243Z,100808.41
2024-05-09T11:58:08.812Z,100801.19
2024-05-09T12:00:37.632Z,100806.88
2024-05-09T12:03:08.726Z,100806.63
2024-05-09T12:05:36.304Z,100795.25
2024-05-09T12:08:06.812Z,100790.81
2024-05-09T12:10:36.147Z,100800.16
2024-05-09T12:13:09.426Z,100790.69
2024-05-09T12:15:38.283Z,100794.81
2024-05-09T12:18:09.144Z,100791.84
2024-05-09T12:20:39.196Z,100788.88
2024-05-09T12:23:11.201Z,100789.72
2024-05-09T12:25:39.915Z,100788.06
2024-05-09T12:28:13.132Z,100786.47
2024-05-09T12:30:41.628Z,100779.22
2024-05-09T12:33:13.530Z,100781.91
2024-05-09T12:35:44.527Z,100772.78
2024-05-09T12:38:16.753Z,100773.53
2024-05-09T12:40:44.282Z,100772.19
2024-05-09T12:43:16.984Z,100771.38
2024-05-09T12:45:44.811Z,100766.81
2024-05-09T12:48:14.891Z,100763.19
2024-05-09T12:50:42.541Z,100750.53
2024-05-09T12:53:13.107Z,100751.25
2024-05-09T12:55:48.371Z,100747.00
2024-05-09T12:58:27.258Z,100744.72
2024-05-09T13:00:54.918Z,100738.88
2024-05-09T13:03:25.219Z,100741.50
2024-05-09T13:05:53.980Z,100726.41
2024-05-09T13:08:24.127Z,100737.94
2024-05-09T13:10:51.558Z,100730.53
2024-05-09T13:13:21.842Z,100721.28
2024-05-09T13:15:51.784Z,100725.53
2024-05-09T13:18:21.582Z,100729.75
2024-05-09T13:20:48.985Z,100721.09
2024-05-09T13:23:18.995Z,100713.03
2024-05-09T13:25:46.544Z,100717.47
2024-05-09T13:28:17.196Z,100714.09
2024-05-09T13:30:44.599Z,100714.09
2024-05-09T13:33:18.019Z,100721.81
2024-05-09T13:35:49.510Z,100715.19
2024-05-09T13:38:22.607Z,100715.00
2024-05-09T13:40:50.706Z,100706.72
2024-05-09T13:43:22.300Z,100707.94
2024-05-09T13:45:50.261Z,100705.00
2024-05-09T13:48:23.272Z,100708.25
2024-05-09T13:50:51.032Z,100707.25
2024-05-09T13:53:21.220Z,100704.56
2024-05-09T13:55:48.779Z,100707.16
2024-05-09T13:58:19.168Z,100702.75
2024-05-09T14:00:49.019Z,100700.41
2024-05-09T14:03:22.419Z,100696.75
2024-05-09T14:05:52.688Z,100695.50
2024-05-09T14:08:22.331Z,100698.59
2024-05-09T14:10:53.766Z,100696.25
2024-05-09T14:13:21.350Z,100690.56
2024-05-09T14:15:51.637Z,100683.72
2024-05-09T14:18:21.752Z,100682.63
2024-05-09T14:20:51.797Z,100690.00
2024-05-09T14:23:19.061Z,100681.09
2024-05-09T14:25:52.177Z,100686.88
2024-05-09T14:28:20.588Z,100679.47
2024-05-09T14:30:50.806Z,100674.84
2024-05-09T14:33:23.682Z,100673.56
2024-05-09T14:35:56.814Z,100669.03
2024-05-09T14:38:24.647Z,100666.03
2024-05-09T14:40:54.662Z,100661.84
2024-05-09T14:43:22.191Z,100656.03
2024-05-09T14:45:53.353Z,100643.91
2024-05-09T14:48:21.278Z,100650.50
2024-05-09T14:50:51.407Z,100646.78
2024-05-09T14:53:23.511Z,100640.19
2024-05-09T14:55:54.573Z,100639.72
2024-05-09T14:58:23.472Z,100640.16
2024-05-09T15:00:54.507Z,100627.97
2024-05-09T15:03:23.217Z,100632.44
2024-05-09T15:05:53.695Z,100627.75
2024-05-09T15:08:23.683Z,100631.91
2024-05-09T15:10:53.530Z,100633.16
2024-05-09T15:13:21.748Z,100627.09
2024-05-09T15:15:51.434Z,100621.63
2024-05-09T15:18:19.759Z,100618.69
2024-05-09T15:20:50.230Z,100618.06
2024-05-09T15:23:17.533Z,100621.44
2024-05-09T15:25:50.576Z,100615.78
2024-05-09T15:28:19.011Z,100616.41
2024-05-09T15:30:50.040Z,100617.84
2024-05-09T15:33:17.826Z,100612.53
2024-05-09T15:35:49.461Z,100610.28
2024-05-09T15:38:18.652Z,100605.53
2024-05-09T15:40:51.575Z,100604.56
2024-05-09T15:43:18.986Z,100596.91
2024-05-09T15:45:49.207Z,100603.72
2024-05-09T15:48:17.479Z,100600.06
2024-05-09T15:50:47.345Z,100594.72
2024-05-09T15:53:14.922Z,100593.28
2024-05-09T15:55:45.385Z,100593.75
2024-05-09T15:58:15.947Z,100597.41
2024-05-09T16:00:48.742Z,100592.28
2024-05-09T16:03:18.326Z,100592.03
2024-05-09T16:05:49.155Z,100584.63
2024-05-09T16:08:16.909Z,100585.94
2024-05-09T16:10:48.196Z,100582.66
2024-05-09T16:13:19.772Z,100581.31
2024-05-09T16:15:50.450Z,100578.97
2024-05-09T16:18:19.766Z,100582.56
2024-05-09T16:20:51.024Z,100580.47
2024-05-09T16:23:18.874Z,100571.69
2024-05-09T16:25:51.764Z,100577.09
2024-05-09T16:28:23.874Z,100578.75
2024-05-09T16:30:54.538Z,100580.53
2024-05-09T16:33:24.036Z,100585.16
2024-05-09T16:35:55.332Z,100580.13
2024-05-09T16:38:23.240Z,100575.03
2024-05-09T16:40:53.179Z,100580.91
2024-05-09T16:43:24.330Z,100589.56
2024-05-09T16:45:54.922Z,100588.50
2024-05-09T16:48:22.723Z,100588.97
2024-05-09T16:50:52.709Z,100581.53
2024-05-09T16:53:20.971Z,100575.59
2024-05-09T16:55:51.085Z,100574.91
2024-05-09T16:58:19.081Z,100580.09
2024-05-09T17:00:53.057Z,100572.56
2024-05-09T17:03:23.685Z,100579.75
2024-05-09T17:05:54.026Z,100571.50
2024-05-09T17:08:21.291Z,100565.84
2024-05-09T17:10:51.941Z,100567.31
2024-05-09T17:13:19.860Z,100564.34
2024-05-09T17:15:53.022Z,100558.78
2024-05-09T17:18:23.201Z,100566.66
2024-05-09T17:20:54.062Z,100577.13
2024-05-09T17:23:21.424Z,100571.88
2024-05-09T17:25:51.208Z,100568.13
2024-05-09T17:28:18.841Z,100561.84
2024-05-09T17:30:49.027Z,100570.13
2024-05-09T17:33:19.485Z,100567.16
2024-05-09T17:35:50.719Z,100566.63
2024-05-09T17:38:18.884Z,100564.81
2024-05-09T17:40:49.013Z,100558.69
2024-05-09T17:43:16.630Z,100563.16
2024-05-09T17:45:47.217Z,100557.72
2024-05-09T17:48:15.193Z,100561.00
2024-05-09T17:50:48.030Z,100556.53
2024-05-09T17:53:15.957Z,100561.13
2024-05-09T17:55:45.948Z,100565.16
2024-05-09T17:58:13.407Z,100562.44
2024-05-09T18:00:43.258Z,100565.72
2024-05-09T18:03:12.301Z,100571.75
2024-05-09T18:05:44.698Z,100571.16
2024-05-09T18:08:15.064Z,100573.63
2024-05-09T18:10:45.395Z,100575.06
2024-05-09T18:13:13.247Z,100580.88
2024-05-09T18:15:45.193Z,100579.66
2024-05-09T18:18:12.929Z,100580.47
2024-05-09T18:20:45.653Z,100585.88
2024-05-09T18:23:19.889Z,100581.53
2024-05-09T18:25:48.183Z,100595.25
2024-05-09T18:28:18.540Z,100588.44
2024-05-09T18:30:46.089Z,100593.16
2024-05-09T18:33:16.562Z,100597.00
2024-05-09T18:35:44.807Z,100600.22
2024-05-09T18:38:14.934Z,100604.25
2024-05-09T18:40:47.419Z,100607.88
2024-05-09T18:43:22.115Z,100603.75
2024-05-09T18:45:53.321Z,100606.38
2024-05-09T18:48:24.493Z,100607.44
2024-05-09T18:50:51.729Z,100610.19
2024-05-09T18:53:22.023Z,100614.09
2024-05-09T18:55:52.040Z,100615.75
2024-05-09T18:58:22.643Z,100617.38
2024-05-09T19:00:54.984Z,100620.56
2024-05-09T19:03:23.265Z,100613.44
2024-05-09T19:05:53.454Z,100621.72
2024-05-09T19:08:20.778Z,100621.66
2024-05-09T19:10:52.545Z,100620.88
2024-05-09T19:13:22.402Z,100626.22
2024-05-09T19:15:52.635Z,100622.28
2024-05-09T19:18:19.998Z,100627.72
2024-05-09T19:20:50.209Z,100622.63
2024-05-09T19:23:17.354Z,100631.25
2024-05-09T19:25:47.563Z,100638.81
2024-05-09T19:28:14.785Z,100638.69
2024-05-09T19:30:47.267Z,100642.84
2024-05-09T19:33:15.121Z,100637.50
2024-05-09T19:35:45.899Z,100638.16
2024-05-09T19:38:13.324Z,100641.19
2024-05-09T19:40:43.192Z,100636.34
2024-05-09T19:43:11.139Z,100639.34
2024-05-09T19:45:41.190Z,100636.16
2024-05-09T19:48:11.311Z,100629.44
2024-05-09T19:50:44.115Z,100632.41
2024-05-09T19:53:13.172Z,100644.16
2024-05-09T19:55:43.552Z,100646.22
2024-05-09T19:58:12.041Z,100637.75
2024-05-09T20:00:44.058Z,100637.16
2024-05-09T20:03:15.953Z,100634.03
2024-05-09T20:05:47.998Z,100636.03
2024-05-09T20:08:16.928Z,100634.66
2024-05-09T20:10:46.962Z,100640.22
2024-05-09T20:13:14.401Z,100640.53
2024-05-09T20:15:44.253Z,100646.97
2024-05-09T20:18:18.004Z,100645.66
2024-05-09T20:20:50.690Z,100646.00
2024-05-09T20:23:19.886Z,100649.06
2024-05-09T20:25:50.330Z,100656.50
2024-05-09T20:28:17.577Z,100647.28
2024-05-09T20:30:47.695Z,100641.44
2024-05-09T20:33:17.482Z,100638.31
2024-05-09T20:35:47.696Z,100638.47
2024-05-09T20:38:14.901Z,100636.91
2024-05-09T20:40:44.800Z,100627.47
2024-05-09T20:43:13.244Z,100634.47
2024-05-09T20:45:43.160Z,100629.31
2024-05-09T20:48:10.635Z,100629.44
2024-05-09T20:50:43.999Z,100621.75
2024-05-09T20:53:14.054Z,100622.81
2024-05-09T20:55:45.754Z,100627.44
2024-05-09T20:58:13.549Z,100618.22
2024-05-09T21:00:45.495Z,100624.63
2024-05-09T21:03:16.389Z,100630.91
2024-05-09T21:05:49.987Z,100623.16
2024-05-09T21:08:17.426Z,100624.06
2024-05-09T21:10:47.523Z,100627.66
2024-05-09T21:13:14.939Z,100631.31
2024-05-09T21:15:45.209Z,100631.41
2024-05-09T21:18:12.439Z,100639.34
2024-05-09T21:20:42.334Z,100632.53
2024-05-09T21:23:12.191Z,100636.22
2024-05-09T21:25:42.005Z,100630.19
2024-05-09T21:28:09.460Z,100632.91
2024-05-09T21:30:42.769Z,100626.94
2024-05-09T21:33:13.652Z,100631.47
2024-05-09T21:35:45.706Z,100619.38
2024-05-09T21:38:16.042Z,100629.09
2024-05-09T21:40:46.446Z,100622.31
2024-05-09T21:43:14.597Z,100631.19
2024-05-09T21:45:45.068Z,100632.25
2024-05-09T21:48:13.459Z,100641.13
2024-05-09T21:50:43.497Z,100642.13
2024-05-09T21:53:11.883Z,100637.91
2024-05-09T21:55:45.966Z,100642.38
2024-05-09T21:58:14.224Z,100636.41
2024-05-09T22:00:46.587Z,100639.03
2024-05-09T22:03:15.256Z,100635.69
2024-05-09T22:05:49.786Z,100635.81
2024-05-09T22:08:17.307Z,100636.78
2024-05-09T22:10:51.062Z,100631.63
2024-05-09T22:13:20.402Z,100646.53
2024-05-09T22:15:51.156Z,100639.66
2024-05-09T22:18:18.969Z,100631.94
2024-05-09T22:20:50.728Z,100638.94
2024-05-09T22:23:18.111Z,100640.88
2024-05-09T22:25:51.014Z,100646.28
2024-05-09T22:28:18.852Z,100643.72
2024-05-09T22:30:55.650Z,100639.41
2024-05-09T22:33:22.945Z,100642.91
2024-05-09T22:35:54.139Z,100648.19
2024-05-09T22:38:22.458Z,100643.00
2024-05-09T22:40:56.200Z,100647.41
2024-05-09T22:43:25.220Z,100637.94
2024-05-09T22:45:56.125Z,100638.91
2024-05-09T22:48:25.320Z,100643.38
2024-05-09T22:50:57.698Z,100636.56
2024-05-09T22:53:25.839Z,100634.88
2024-05-09T22:55:58.988Z,100637.53
2024-05-09T22:58:26.321Z,100632.44
2024-05-09T23:00:57.523Z,100638.63
2024-05-09T23:03:25.456Z,100631.88
2024-05-09T23:05:55.899Z,100631.97
2024-05-09T23:08:23.380Z,100634.66
2024-05-09T23:10:53.866Z,100636.53
2024-05-09T23:13:23.821Z,100625.25
2024-05-09T23:15:54.211Z,100630.44
2024-05-09T23:18:22.229Z,100628.75
2024-05-09T23:20:52.301Z,100626.16
2024-05-09T23:23:20.627Z,100630.59
2024-05-09T23:25:52.805Z,100628.94
2024-05-09T23:28:20.321Z,100620.41
2024-05-09T23:30:53.073Z,100625.66
2024-05-09T23:33:20.636Z,100616.19
2024-05-09T23:35:50.864Z,100628.44
2024-05-09T23:38:20.916Z,100620.75
2024-05-09T23:40:52.612Z,100619.06
2024-05-09T23:43:20.143Z,100615.69
2024-05-09T23:45:53.034Z,100614.81
2024-05-09T23:48:20.222Z,100618.28
2024-05-09T23:50:50.136Z,100611.44
2024-05-09T23:53:17.307Z,100614.19
2024-05-09T23:55:47.078Z,100612.59
2024-05-09T23:58:14.262Z,100607.53
